createdAt,value
2023-03-29T00:01:52.225Z,78.47
2023-03-29T00:04:20.790Z,78.75
2023-03-29T00:06:50.578Z,79.13
2023-03-29T00:09:18.341Z,78.73
2023-03-29T00:11:45.973Z,79.13
2023-03-29T00:14:13.142Z,78.55
2023-03-29T00:16:40.105Z,79.48
2023-03-29T00:19:06.855Z,79.35
2023-03-29T00:21:33.445Z,79.28
2023-03-29T00:24:00.579Z,79.55
2023-03-29T00:26:27.187Z,79.49
2023-03-29T00:28:53.765Z,79.83
2023-03-29T00:31:20.446Z,79.33
2023-03-29T00:33:47.622Z,79.09
2023-03-29T00:36:14.696Z,79.25
2023-03-29T00:38:41.685Z,79.42
2023-03-29T00:41:10.115Z,79.95
2023-03-29T00:43:52.851Z,79.63
2023-03-29T00:46:19.520Z,79.58
2023-03-29T00:48:46.657Z,79.73
2023-03-29T00:51:16.628Z,79.50
2023-03-29T00:53:48.973Z,80.25
2023-03-29T00:56:40.278Z,80.26
2023-03-29T00:59:14.080Z,80.38
2023-03-29T01:01:54.987Z,80.21
2023-03-29T01:04:33.997Z,79.68
2023-03-29T01:07:13.696Z,80.22
2023-03-29T01:09:45.594Z,79.89
2023-03-29T01:12:19.954Z,79.71
2023-03-29T01:15:13.866Z,79.81
2023-03-29T01:17:43.521Z,80.10
2023-03-29T01:20:21.064Z,80.25
2023-03-29T01:23:21.365Z,80.49
2023-03-29T01:26:01.133Z,80.08
2023-03-29T01:28:39.253Z,80.67
2023-03-29T01:31:12.794Z,80.59
2023-03-29T01:33:46.169Z,80.02
2023-03-29T01:36:19.299Z,79.94
2023-03-29T01:39:12.302Z,80.58
2023-03-29T01:41:40.154Z,80.37
2023-03-29T01:44:13.728Z,80.55
2023-03-29T01:46:48.417Z,80.67
2023-03-29T01:49:40.109Z,80.44
2023-03-29T01:52:19.170Z,80.98
2023-03-29T01:54:54.796Z,80.68
2023-03-29T01:57:25.181Z,81.24
2023-03-29T01:59:54.500Z,80.43
2023-03-29T02:02:23.453Z,80.25
2023-03-29T02:04:55.130Z,80.97
2023-03-29T02:07:26.493Z,80.83
2023-03-29T02:09:55.676Z,80.91
2023-03-29T02:12:22.870Z,81.26
2023-03-29T02:14:49.558Z,81.63
2023-03-29T02:17:20.725Z,81.17
2023-03-29T02:19:52.119Z,80.91
2023-03-29T02:22:24.851Z,80.88
2023-03-29T02:24:59.238Z,81.48
2023-03-29T02:27:29.191Z,81.71
2023-03-29T02:29:56.404Z,81.47
2023-03-29T02:32:33.556Z,81.80
2023-03-29T02:35:21.932Z,81.30
2023-03-29T02:37:52.971Z,81.80
2023-03-29T02:40:21.716Z,81.71
2023-03-29T02:42:49.125Z,81.59
2023-03-29T02:45:20.061Z,81.26
2023-03-29T02:47:53.611Z,81.71
2023-03-29T02:50:21.122Z,80.77
2023-03-29T02:52:54.946Z,81.20
2023-03-29T02:55:24.717Z,81.71
2023-03-29T02:57:51.472Z,81.59
2023-03-29T03:00:23.175Z,82.17
2023-03-29T03:02:53.415Z,81.66
2023-03-29T03:05:20.048Z,81.86
2023-03-29T03:07:47.069Z,81.32
2023-03-29T03:10:14.327Z,80.84
2023-03-29T03:12:42.860Z,81.06
2023-03-29T03:15:10.535Z,80.37
2023-03-29T03:17:40.063Z,80.91
2023-03-29T03:20:14.606Z,80.60
2023-03-29T03:22:44.285Z,80.52
2023-03-29T03:25:11.385Z,80.98
2023-03-29T03:27:38.554Z,80.24
2023-03-29T03:30:07.141Z,79.81
2023-03-29T03:32:36.811Z,79.70
2023-03-29T03:35:05.612Z,80.32
2023-03-29T03:37:32.404Z,80.24
2023-03-29T03:39:59.440Z,80.06
2023-03-29T03:42:29.581Z,79.41
2023-03-29T03:44:56.647Z,79.65
2023-03-29T03:47:23.760Z,79.54
2023-03-29T03:49:51.561Z,79.55
2023-03-29T03:52:19.151Z,79.02
2023-03-29T03:54:46.723Z,79.71
2023-03-29T03:57:13.557Z,78.82
2023-03-29T03:59:40.370Z,79.58
2023-03-29T04:02:07.514Z,78.83
2023-03-29T04:04:34.415Z,78.76
2023-03-29T04:07:04.372Z,77.87
2023-03-29T04:09:33.260Z,78.22
2023-03-29T04:12:01.565Z,77.66
2023-03-29T04:14:29.370Z,77.48
2023-03-29T04:16:56.067Z,76.81
2023-03-29T04:19:23.136Z,76.89
2023-03-29T04:21:51.282Z,76.46
2023-03-29T04:24:17.894Z,76.50
2023-03-29T04:26:44.648Z,76.09
2023-03-29T04:29:12.042Z,76.22
2023-03-29T04:31:38.703Z,76.03
2023-03-29T04:34:05.366Z,75.45
2023-03-29T04:36:32.143Z,75.71
2023-03-29T04:39:01.572Z,76.06
2023-03-29T04:41:28.783Z,75.39
2023-03-29T04:43:56.450Z,74.69
2023-03-29T04:46:26.751Z,74.08
2023-03-29T04:48:54.150Z,75.12
2023-03-29T04:51:22.494Z,74.68
2023-03-29T04:53:50.379Z,73.62
2023-03-29T04:56:17.335Z,74.11
2023-03-29T04:58:44.542Z,73.44
2023-03-29T05:01:11.429Z,72.84
2023-03-29T05:03:38.154Z,72.68
2023-03-29T05:06:12.207Z,72.77
2023-03-29T05:08:40.362Z,72.44
2023-03-29T05:11:10.343Z,71.57
2023-03-29T05:13:37.860Z,72.52
2023-03-29T05:16:04.819Z,71.78
2023-03-29T05:18:31.942Z,72.04
2023-03-29T05:21:01.857Z,71.38
2023-03-29T05:23:28.929Z,70.52
2023-03-29T05:25:55.549Z,70.47
2023-03-29T05:28:22.517Z,70.28
2023-03-29T16:59:06.664Z,68.82
2023-03-29T17:01:33.312Z,68.99
2023-03-29T17:03:59.976Z,68.86
2023-03-29T17:06:26.900Z,69.69
2023-03-29T17:08:53.828Z,69.55
2023-03-29T17:11:23.559Z,68.65
2023-03-29T17:13:53.993Z,68.09
2023-03-29T17:16:28.033Z,68.44
2023-03-29T17:18:54.713Z,68.00
2023-03-29T17:21:21.383Z,67.96
2023-03-29T17:23:47.931Z,67.83
2023-03-29T17:26:14.548Z,67.93
2023-03-29T17:28:44.315Z,67.84
2023-03-29T17:31:11.199Z,67.73
2023-03-29T17:33:37.964Z,67.68
2023-03-29T17:36:05.920Z,67.48
2023-03-29T17:38:36.790Z,67.59
2023-03-29T17:41:04.612Z,67.62
2023-03-29T17:43:31.919Z,67.59
2023-03-29T17:45:58.500Z,67.70
2023-03-29T17:48:25.764Z,67.51
2023-03-29T17:50:56.376Z,68.10
2023-03-29T17:53:23.048Z,67.91
2023-03-29T17:55:49.736Z,67.84
2023-03-29T17:58:19.481Z,67.70
2023-03-29T18:00:46.086Z,67.98
2023-03-29T18:03:12.782Z,68.35
2023-03-29T18:05:39.370Z,68.15
2023-03-29T18:08:06.159Z,67.97
2023-03-29T18:10:32.854Z,68.42
2023-03-29T18:13:00.602Z,68.14
2023-03-29T18:15:27.163Z,68.63
2023-03-29T18:17:54.608Z,68.47
2023-03-29T18:20:21.247Z,68.45
2023-03-29T18:22:47.872Z,67.68
2023-03-29T18:25:16.510Z,68.10
2023-03-29T18:27:43.052Z,68.07
2023-03-29T18:30:10.272Z,68.10
2023-03-29T18:32:37.932Z,67.99
2023-03-29T18:35:05.060Z,68.86
2023-03-29T18:37:31.911Z,68.76
2023-03-29T18:39:58.595Z,68.59
2023-03-29T18:42:25.270Z,69.13
2023-03-29T18:44:52.033Z,69.46
2023-03-29T18:47:20.057Z,69.25
2023-03-29T18:49:47.308Z,69.71
2023-03-29T18:52:14.247Z,69.84
2023-03-29T18:54:41.622Z,69.68
2023-03-29T18:57:09.292Z,70.30
2023-03-29T18:59:36.629Z,70.53
2023-03-29T19:02:07.037Z,70.10
2023-03-29T19:04:33.713Z,69.92
2023-03-29T19:07:01.462Z,70.72
2023-03-29T19:09:29.097Z,70.53
2023-03-29T19:11:55.759Z,70.39
2023-03-29T19:14:25.211Z,70.81
2023-03-29T19:16:53.097Z,71.08
2023-03-29T19:19:21.404Z,71.06
2023-03-29T19:21:48.057Z,71.18
2023-03-29T19:24:15.888Z,70.90
2023-03-29T19:26:44.458Z,71.32
2023-03-29T19:29:11.678Z,71.42
2023-03-29T19:31:38.477Z,70.75
2023-03-29T19:34:07.045Z,71.16
2023-03-29T19:36:33.857Z,71.24
2023-03-29T19:39:01.869Z,71.25
2023-03-29T19:41:28.754Z,71.10
2023-03-29T19:43:55.516Z,71.21
2023-03-29T19:46:23.217Z,71.02
2023-03-29T19:48:51.765Z,71.27
2023-03-29T19:51:18.338Z,71.14
2023-03-29T19:53:44.992Z,71.14
2023-03-29T19:56:13.266Z,71.62
2023-03-29T19:58:40.933Z,71.46
2023-03-29T20:01:08.439Z,71.10
2023-03-29T20:03:36.234Z,70.92
2023-03-29T20:06:03.164Z,71.74
2023-03-29T20:08:30.758Z,70.82
2023-03-29T20:11:03.849Z,71.38
2023-03-29T20:13:38.167Z,71.52
2023-03-29T20:16:10.047Z,71.80
2023-03-29T20:18:40.041Z,71.11
2023-03-29T20:21:08.038Z,71.76
2023-03-29T20:23:36.173Z,71.10
2023-03-29T20:26:03.275Z,71.68
2023-03-29T20:28:29.892Z,71.12
2023-03-29T20:30:57.208Z,70.98
2023-03-29T20:33:23.918Z,71.24
2023-03-29T20:35:50.574Z,71.85
2023-03-29T20:38:17.291Z,71.82
2023-03-29T20:40:44.907Z,71.88
2023-03-29T20:43:13.613Z,71.57
2023-03-29T20:45:52.738Z,71.32
2023-03-29T20:48:23.223Z,71.94
2023-03-29T20:50:50.587Z,72.17
2023-03-29T20:53:18.367Z,71.96
2023-03-29T20:55:45.316Z,72.30
2023-03-29T20:58:12.964Z,72.11
2023-03-29T21:00:40.455Z,71.43
2023-03-29T21:03:08.525Z,71.93
2023-03-29T21:05:35.772Z,71.63
2023-03-29T21:08:04.471Z,72.05
2023-03-29T21:10:31.326Z,71.57
2023-03-29T21:13:02.791Z,72.01
2023-03-29T21:15:30.820Z,72.33
2023-03-29T21:17:58.091Z,72.36
2023-03-29T21:20:25.049Z,71.85
2023-03-29T21:22:51.749Z,71.84
2023-03-29T21:25:19.182Z,72.65
2023-03-29T21:27:48.346Z,73.11
2023-03-29T21:30:15.120Z,72.91
2023-03-29T21:32:41.740Z,72.87
2023-03-29T21:35:09.223Z,72.39
2023-03-29T21:37:36.102Z,72.89
2023-03-29T21:40:05.992Z,72.42
2023-03-29T21:42:35.859Z,72.69
2023-03-29T21:45:03.334Z,72.21
2023-03-29T21:47:30.474Z,72.09
2023-03-29T21:49:57.345Z,72.06
2023-03-29T21:52:23.953Z,72.44
2023-03-29T21:54:50.618Z,72.57
2023-03-29T21:57:17.346Z,71.93
2023-03-29T21:59:44.834Z,72.06
2023-03-29T22:02:11.752Z,72.38
2023-03-29T22:04:38.473Z,72.26
2023-03-29T22:07:06.323Z,72.07
2023-03-29T22:09:35.023Z,72.59
2023-03-29T22:12:02.357Z,72.63
2023-03-29T22:14:30.291Z,72.27
2023-03-29T22:16:57.097Z,72.38
2023-03-29T22:19:23.860Z,72.11
2023-03-29T22:21:51.444Z,72.33
2023-03-29T22:24:18.491Z,71.64
2023-03-29T22:26:45.397Z,71.65
2023-03-29T22:29:12.304Z,71.67
2023-03-29T22:31:39.567Z,71.30
2023-03-29T22:34:06.914Z,71.42
2023-03-29T22:36:35.654Z,71.17
2023-03-29T22:39:02.255Z,71.17
2023-03-29T22:41:29.420Z,70.70
2023-03-29T22:43:58.227Z,70.68
2023-03-29T22:46:25.492Z,71.20
2023-03-29T22:48:52.571Z,70.42
2023-03-29T22:51:20.095Z,70.14
2023-03-29T22:53:47.196Z,70.38
2023-03-29T22:56:15.555Z,69.98
2023-03-29T22:58:43.606Z,69.96
2023-03-29T23:01:10.853Z,69.22
2023-03-29T23:03:38.475Z,69.40
2023-03-29T23:06:05.625Z,69.29
2023-03-29T23:08:33.821Z,68.84
2023-03-29T23:11:03.172Z,68.84
2023-03-29T23:13:30.343Z,68.38
2023-03-29T23:15:59.305Z,68.27
2023-03-29T23:18:28.696Z,68.09
2023-03-29T23:20:57.212Z,67.88
2023-03-29T23:23:25.695Z,67.54
2023-03-29T23:25:53.644Z,67.83
2023-03-29T23:28:23.473Z,67.64
2023-03-29T23:31:06.305Z,67.68
2023-03-29T23:33:35.593Z,67.47
2023-03-29T23:36:05.453Z,66.99
2023-03-29T23:38:34.524Z,67.03
2023-03-29T23:41:03.195Z,67.46
2023-03-29T23:43:32.913Z,67.39
2023-03-29T23:46:01.893Z,67.48
2023-03-29T23:48:28.924Z,67.59
2023-03-29T23:50:59.423Z,67.28
2023-03-29T23:53:29.544Z,66.86
2023-03-29T23:56:01.341Z,66.73
2023-03-29T23:58:29.897Z,67.11
